Time;durP1;ratioP1;P1;durP2;ratioP2;P2;SDS_P1;SDS_P2;PMS_P1;PMS_P2;Temp;Humidity;BMP_temperature;BMP_pressure;BME280_temperature;BME280_humidity;BME280_pressure;Samples;Min_cycle;Max_cycle;Signal;HPM_P1;HPM_P2
2020/12/16 00:00:11;;;;;;;12.10;9.60;;;;;;;10.85;71.35;96615.59;5056740;28;20199;-73
2020/12/16 00:02:38;;;;;;;11.90;9.87;;;;;;;10.82;71.45;96617.75;5068061;28;20206;-72
2020/12/16 00:05:05;;;;;;;12.47;9.40;;;;;;;10.81;71.18;96626.59;5072231;28;20202;-72
2020/12/16 00:07:31;;;;;;;12.43;9.57;;;;;;;10.79;71.22;96618.91;5071058;28;20496;-72
2020/12/16 00:09:57;;;;;;;14.03;11.00;;;;;;;10.79;71.27;96620.69;5074225;28;20926;-72
2020/12/16 00:12:23;;;;;;;11.70;9.57;;;;;;;10.75;71.15;96615.81;5075814;28;20178;-74
2020/12/16 00:14:49;;;;;;;12.80;9.60;;;;;;;10.76;71.11;96611.38;5076153;28;20283;-73
2020/12/16 00:17:14;;;;;;;13.53;11.00;;;;;;;10.73;71.36;96611.69;5058259;28;20425;-74
2020/12/16 00:19:41;;;;;;;11.27;10.07;;;;;;;10.74;71.55;96602.84;5076478;28;20266;-72
2020/12/16 00:22:07;;;;;;;13.23;11.00;;;;;;;10.72;71.39;96603.03;5076738;28;20189;-73
2020/12/16 00:24:33;;;;;;;13.30;10.90;;;;;;;10.70;71.58;96601.56;5075823;28;20490;-71
2020/12/16 00:26:58;;;;;;;16.50;12.37;;;;;;;10.69;71.34;96599.94;5075682;28;20823;-73
2020/12/16 00:29:24;;;;;;;15.60;11.30;;;;;;;10.66;71.40;96605.50;5065371;28;20921;-73
2020/12/16 00:31:50;;;;;;;14.77;11.30;;;;;;;10.63;71.42;96611.06;5088923;28;20178;-72
2020/12/16 00:34:16;;;;;;;15.20;11.50;;;;;;;10.63;71.38;96605.81;5073616;28;20216;-72
2020/12/16 00:36:42;;;;;;;18.93;12.30;;;;;;;10.52;71.71;96602.56;5073645;28;20646;-72
2020/12/16 00:39:09;;;;;;;16.33;12.13;;;;;;;10.48;72.02;96608.31;5074362;28;20206;-73
2020/12/16 00:41:35;;;;;;;16.47;12.77;;;;;;;10.47;71.65;96604.88;5065431;28;20240;-72
2020/12/16 00:44:02;;;;;;;16.73;12.80;;;;;;;10.44;71.81;96606.03;5072564;28;20965;-72
2020/12/16 00:46:28;;;;;;;17.33;13.00;;;;;;;10.40;71.49;96612.56;5054103;28;20428;-72
2020/12/16 00:48:53;;;;;;;18.50;13.10;;;;;;;10.40;71.60;96606.53;5073894;28;20477;-72
2020/12/16 00:51:19;;;;;;;17.07;12.97;;;;;;;10.39;71.57;96605.72;5073059;28;20218;-72
2020/12/16 00:53:45;;;;;;;16.30;12.30;;;;;;;10.38;71.70;96611.09;5072573;28;20199;-70
2020/12/16 00:56:11;;;;;;;17.17;12.30;;;;;;;10.40;71.75;96619.63;5073688;28;20421;-72
2020/12/16 00:58:37;;;;;;;15.60;12.37;;;;;;;10.40;71.75;96622.25;5072188;28;20189;-73
2020/12/16 01:01:04;;;;;;;16.50;12.50;;;;;;;10.44;71.91;96623.56;5058493;28;20426;-73
2020/12/16 01:03:29;;;;;;;17.20;12.13;;;;;;;10.46;71.81;96626.81;5067309;28;20540;-73
2020/12/16 01:05:55;;;;;;;18.13;13.67;;;;;;;10.40;72.34;96633.53;5073667;28;20436;-72
2020/12/16 01:08:22;;;;;;;14.50;11.10;;;;;;;10.48;72.67;96637.94;5073521;28;20189;-72
2020/12/16 01:10:47;;;;;;;16.00;12.60;;;;;;;10.52;72.47;96641.88;5066723;28;20182;-73
2020/12/16 01:13:13;;;;;;;17.33;12.57;;;;;;;10.55;72.19;96640.72;5055900;28;20950;-72
2020/12/16 01:15:39;;;;;;;16.27;12.40;;;;;;;10.52;71.90;96644.50;5072998;28;20649;-71
2020/12/16 01:18:05;;;;;;;16.30;12.50;;;;;;;10.50;72.07;96643.84;5072099;28;20179;-71
2020/12/16 01:20:30;;;;;;;17.80;12.60;;;;;;;10.58;72.04;96649.09;5072984;28;20205;-71
2020/12/16 01:22:56;;;;;;;15.73;12.30;;;;;;;10.63;71.80;96648.59;5073860;28;20178;-72
2020/12/16 01:25:22;;;;;;;16.07;12.73;;;;;;;10.52;71.77;96654.97;5075227;28;20572;-71
2020/12/16 01:27:54;;;;;;;15.13;11.93;;;;;;;10.63;71.71;96653.00;5073329;28;20205;-71
2020/12/16 01:30:20;;;;;;;15.23;11.80;;;;;;;10.63;71.82;96648.59;5066544;28;20236;-72
2020/12/16 01:32:46;;;;;;;15.40;12.00;;;;;;;10.69;71.69;96652.34;5073286;28;20425;-71
2020/12/16 01:35:12;;;;;;;14.93;12.10;;;;;;;10.74;71.64;96653.47;5067706;28;20447;-72
2020/12/16 01:37:38;;;;;;;14.73;11.63;;;;;;;10.75;71.50;96651.66;5058166;28;20676;-72
2020/12/16 01:40:09;;;;;;;14.30;10.93;;;;;;;10.79;71.42;96652.97;5066237;28;20210;-71
2020/12/16 01:42:35;;;;;;;16.37;11.27;;;;;;;10.82;71.53;96657.91;5072889;28;20427;-70
2020/12/16 01:45:12;;;;;;;14.47;10.80;;;;;;;10.87;71.37;96655.56;5062899;28;20476;-70
2020/12/16 01:47:38;;;;;;;15.00;11.00;;;;;;;10.90;71.04;96654.41;5072759;28;20421;-71
2020/12/16 01:50:06;;;;;;;16.50;10.97;;;;;;;10.85;71.26;96652.28;5072703;28;20451;-70
2020/12/16 01:52:32;;;;;;;14.13;10.93;;;;;;;10.86;71.15;96650.50;5071663;28;20497;-71
2020/12/16 01:54:59;;;;;;;14.70;11.13;;;;;;;10.89;71.19;96653.59;5073030;28;20441;-71
2020/12/16 01:57:26;;;;;;;13.13;11.37;;;;;;;10.96;70.94;96647.69;5071965;28;20432;-71
2020/12/16 01:59:52;;;;;;;14.20;11.30;;;;;;;10.98;71.13;96645.72;5056687;28;20458;-71
2020/12/16 02:02:21;;;;;;;18.17;11.37;;;;;;;11.03;70.84;96648.66;5056883;28;20467;-70
2020/12/16 02:04:48;;;;;;;14.40;11.63;;;;;;;11.05;70.66;96651.94;5069977;28;20966;-71
2020/12/16 02:07:14;;;;;;;15.33;11.77;;;;;;;11.05;70.53;96649.31;5073408;28;20893;-72
2020/12/16 02:09:45;;;;;;;12.67;10.00;;;;;;;11.06;70.63;96640.47;5031650;28;20766;-71
2020/12/16 02:12:20;;;;;;;12.57;10.50;;;;;;;11.06;70.55;96646.50;5057444;28;20802;-71
2020/12/16 02:14:46;;;;;;;12.93;11.10;;;;;;;11.08;70.23;96638.50;5071188;28;20451;-71
2020/12/16 02:17:12;;;;;;;14.17;10.97;;;;;;;11.05;70.09;96644.06;5068598;28;20453;-70
2020/12/16 02:19:41;;;;;;;14.10;10.83;;;;;;;11.00;69.92;96648.97;5068320;28;20210;-72
2020/12/16 02:22:09;;;;;;;13.90;11.10;;;;;;;11.00;70.14;96651.59;5072371;28;20428;-71
2020/12/16 02:24:39;;;;;;;13.20;11.33;;;;;;;10.74;70.66;96643.00;5072157;28;20448;-72
2020/12/16 02:27:04;;;;;;;14.27;11.63;;;;;;;10.88;70.36;96649.34;5070596;28;20531;-72
2020/12/16 02:29:32;;;;;;;13.70;10.87;;;;;;;10.90;70.25;96644.75;5059100;28;20778;-73
2020/12/16 02:31:59;;;;;;;14.10;11.70;;;;;;;10.95;70.11;96648.69;5068542;28;20190;-71
2020/12/16 02:34:25;;;;;;;16.23;11.70;;;;;;;10.91;70.17;96651.63;5072191;28;20445;-73
2020/12/16 02:36:51;;;;;;;12.40;11.10;;;;;;;10.83;70.19;96653.47;5072379;28;20421;-70
2020/12/16 02:39:16;;;;;;;13.37;10.70;;;;;;;10.90;69.95;96654.41;5070983;28;20543;-71
2020/12/16 02:41:42;;;;;;;14.47;11.30;;;;;;;10.91;69.93;96646.41;5070763;28;20186;-71
2020/12/16 02:44:10;;;;;;;15.47;12.10;;;;;;;10.89;69.98;96642.31;5072083;28;20554;-71
2020/12/16 02:46:36;;;;;;;14.43;11.27;;;;;;;10.96;69.82;96647.69;5053906;28;20231;-71
2020/12/16 02:49:02;;;;;;;13.90;11.13;;;;;;;11.00;69.91;96648.97;5070099;28;20884;-73
2020/12/16 02:51:29;;;;;;;15.40;11.67;;;;;;;10.93;70.04;96650.66;5072104;28;20178;-73
2020/12/16 02:53:54;;;;;;;16.83;10.57;;;;;;;10.96;69.59;96652.94;5066404;28;20936;-70
2020/12/16 02:56:20;;;;;;;12.70;10.97;;;;;;;11.03;69.98;96659.13;5071760;28;20503;-71
2020/12/16 02:58:46;;;;;;;15.50;11.13;;;;;;;11.00;69.41;96656.84;5070715;28;20183;-71
2020/12/16 03:01:12;;;;;;;16.60;11.37;;;;;;;10.96;69.83;96647.69;5038078;28;20175;-72
2020/12/16 03:03:38;;;;;;;14.93;10.47;;;;;;;10.97;69.55;96650.16;5065649;28;20209;-71
2020/12/16 03:06:03;;;;;;;18.00;11.37;;;;;;;10.93;69.92;96658.53;5071488;28;20186;-71
2020/12/16 03:08:29;;;;;;;21.30;10.97;;;;;;;10.92;69.68;96652.44;5071592;28;20436;-71
2020/12/16 03:10:55;;;;;;;14.87;11.40;;;;;;;10.91;69.57;96661.28;5072081;28;20197;-71
2020/12/16 03:13:21;;;;;;;13.53;11.07;;;;;;;10.84;69.74;96660.34;5071116;28;20669;-71
2020/12/16 03:15:46;;;;;;;12.50;10.70;;;;;;;10.77;69.99;96660.19;5071102;28;20178;-71
2020/12/16 03:18:12;;;;;;;12.80;10.70;;;;;;;10.83;69.99;96656.06;5070485;28;20178;-71
2020/12/16 03:20:38;;;;;;;14.00;10.70;;;;;;;10.87;69.71;96657.38;5071549;28;20194;-72
2020/12/16 03:23:03;;;;;;;14.43;11.40;;;;;;;10.84;69.83;96660.34;5071618;28;20244;-71
2020/12/16 03:25:29;;;;;;;14.17;11.30;;;;;;;10.91;69.57;96662.13;5070681;28;20190;-71
2020/12/16 03:27:55;;;;;;;14.00;11.33;;;;;;;10.94;69.94;96653.09;5071772;28;20277;-70
2020/12/16 03:30:20;;;;;;;13.10;10.87;;;;;;;10.97;69.56;96655.41;5055929;28;20178;-73
2020/12/16 03:32:46;;;;;;;12.90;10.83;;;;;;;11.02;69.52;96654.88;5070788;28;20187;-71
2020/12/16 03:35:12;;;;;;;14.23;11.27;;;;;;;11.03;69.65;96653.91;5070050;28;20198;-71
2020/12/16 03:37:38;;;;;;;11.57;10.20;;;;;;;11.03;69.50;96659.94;5068941;28;20194;-71
2020/12/16 03:40:03;;;;;;;12.37;10.13;;;;;;;11.00;69.30;96657.69;5071425;28;20214;-72
2020/12/16 03:42:29;;;;;;;14.90;10.67;;;;;;;10.94;69.38;96665.41;5057798;28;20206;-72
2020/12/16 03:44:55;;;;;;;14.50;11.00;;;;;;;10.97;69.53;96665.03;5076755;28;20220;-72
2020/12/16 03:47:23;;;;;;;14.50;11.27;;;;;;;10.95;69.37;96664.41;5078647;28;20969;-72
2020/12/16 03:49:49;;;;;;;13.23;10.83;;;;;;;10.99;69.37;96660.47;5076968;28;20641;-72
2020/12/16 03:52:15;;;;;;;14.83;10.30;;;;;;;10.98;69.22;96656.19;5076054;28;20417;-71
2020/12/16 03:54:41;;;;;;;12.80;11.40;;;;;;;10.95;69.19;96661.81;5075735;28;20209;-71
2020/12/16 03:57:07;;;;;;;12.60;10.27;;;;;;;10.90;69.19;96650.00;5075704;28;20424;-71
2020/12/16 03:59:33;;;;;;;12.57;11.27;;;;;;;10.81;69.80;96648.41;5062216;28;20394;-71
2020/12/16 04:01:59;;;;;;;12.33;10.47;;;;;;;10.84;69.31;96650.66;5050656;28;20421;-72
2020/12/16 04:04:25;;;;;;;13.43;11.30;;;;;;;10.78;69.23;96647.88;5075927;28;20482;-72
2020/12/16 04:06:55;;;;;;;15.23;10.83;;;;;;;10.78;69.47;96653.97;5075613;28;20240;-72
2020/12/16 04:09:21;;;;;;;14.80;11.53;;;;;;;10.78;69.51;96650.50;5057520;28;20548;-71
2020/12/16 04:11:47;;;;;;;13.30;11.20;;;;;;;10.80;69.31;96649.38;5074268;28;20450;-70
2020/12/16 04:14:12;;;;;;;14.77;12.00;;;;;;;10.81;69.32;96640.53;5070924;28;20488;-72
2020/12/16 04:16:38;;;;;;;13.77;11.07;;;;;;;10.81;69.29;96650.19;5074317;28;20178;-70
2020/12/16 04:19:04;;;;;;;12.07;10.33;;;;;;;10.77;69.31;96647.06;5073004;28;20259;-71
2020/12/16 04:21:30;;;;;;;12.77;10.37;;;;;;;10.74;69.33;96650.03;5074256;28;20179;-71
2020/12/16 04:23:55;;;;;;;13.30;10.97;;;;;;;10.66;69.50;96645.63;5075132;28;20206;-71
2020/12/16 04:26:25;;;;;;;13.63;11.97;;;;;;;10.60;69.78;96639.25;5073490;28;20174;-71
2020/12/16 04:28:50;;;;;;;12.57;10.20;;;;;;;10.53;69.51;96646.13;5072200;28;20182;-71
2020/12/16 04:31:16;;;;;;;13.20;10.07;;;;;;;10.48;69.54;96648.41;5059470;28;20424;-71
2020/12/16 04:33:42;;;;;;;13.23;10.83;;;;;;;10.43;69.62;96653.34;5074416;28;20208;-71
2020/12/16 04:36:09;;;;;;;14.00;11.40;;;;;;;10.40;69.63;96654.47;5056119;28;20915;-71
2020/12/16 04:38:35;;;;;;;14.97;11.40;;;;;;;10.37;69.57;96653.97;5074516;28;20607;-71
2020/12/16 04:41:00;;;;;;;12.57;10.73;;;;;;;10.32;69.54;96657.09;5074426;28;20511;-71
2020/12/16 04:43:26;;;;;;;14.13;11.40;;;;;;;10.24;69.68;96662.34;5070219;28;20204;-71
2020/12/16 04:45:52;;;;;;;15.47;12.63;;;;;;;10.04;70.55;96670.47;5070831;28;20189;-71
2020/12/16 04:48:19;;;;;;;16.30;11.90;;;;;;;10.09;70.00;96662.13;5073398;28;20194;-71
2020/12/16 04:50:45;;;;;;;17.87;13.03;;;;;;;10.02;70.18;96663.78;5065249;28;20758;-72
2020/12/16 04:53:15;;;;;;;14.40;12.50;;;;;;;9.97;70.12;96659.03;5046547;28;20952;-71
2020/12/16 04:55:41;;;;;;;15.57;13.17;;;;;;;9.95;70.26;96668.84;5073158;28;20424;-71
2020/12/16 04:58:08;;;;;;;16.63;13.07;;;;;;;9.94;70.52;96668.03;5071622;28;20547;-71
2020/12/16 05:00:35;;;;;;;18.97;13.57;;;;;;;9.91;69.95;96670.13;5069024;28;20460;-71
2020/12/16 05:03:03;;;;;;;14.93;12.83;;;;;;;9.80;70.72;96666.03;5068052;28;20427;-71
2020/12/16 05:05:29;;;;;;;18.17;13.07;;;;;;;9.78;70.56;96660.94;5055321;28;20996;-71
2020/12/16 05:07:55;;;;;;;15.70;13.30;;;;;;;9.76;70.23;96662.09;5059751;28;20534;-73
2020/12/16 05:10:35;;;;;;;16.70;13.90;;;;;;;9.74;70.80;96669.28;5041473;28;20461;-72
2020/12/16 05:13:05;;;;;;;16.17;12.80;;;;;;;9.76;70.83;96672.56;5043157;28;20183;-71
2020/12/16 05:15:31;;;;;;;17.77;12.40;;;;;;;9.74;70.66;96679.75;5041958;28;20469;-71
2020/12/16 05:18:07;;;;;;;18.77;13.07;;;;;;;9.76;70.72;96676.03;5047723;28;20519;-72
2020/12/16 05:20:34;;;;;;;18.70;13.50;;;;;;;9.79;70.37;96677.50;5050650;28;20459;-72
2020/12/16 05:23:04;;;;;;;18.83;13.57;;;;;;;9.77;70.53;96679.44;5061732;28;20484;-72
2020/12/16 05:25:31;;;;;;;16.90;13.10;;;;;;;9.73;70.91;96672.88;5071405;28;20440;-71
2020/12/16 05:27:58;;;;;;;16.20;12.57;;;;;;;9.62;70.55;96679.25;5073255;28;20420;-71
2020/12/16 05:30:24;;;;;;;14.87;12.57;;;;;;;9.67;70.57;96675.19;5069779;28;20431;-71
2020/12/16 05:32:49;;;;;;;17.80;12.17;;;;;;;9.59;70.74;96677.75;5071946;28;20421;-71
2020/12/16 05:35:20;;;;;;;15.80;11.73;;;;;;;9.60;70.46;96681.19;5071994;28;20745;-71
2020/12/16 05:37:46;;;;;;;16.77;13.37;;;;;;;9.41;70.16;96687.50;5054487;28;20190;-71
2020/12/16 05:40:14;;;;;;;16.00;12.10;;;;;;;9.27;70.78;96689.75;5072569;28;20558;-73
2020/12/16 05:42:41;;;;;;;13.93;11.40;;;;;;;9.13;70.83;96688.53;5060762;28;20271;-71
2020/12/16 05:45:12;;;;;;;14.83;12.63;;;;;;;9.28;70.57;96686.16;5050699;28;20452;-71
2020/12/16 05:47:39;;;;;;;16.60;13.20;;;;;;;9.28;70.77;96698.38;5049626;28;20509;-72
2020/12/16 05:50:16;;;;;;;16.87;13.03;;;;;;;9.32;70.75;96689.25;5050701;28;20486;-71
2020/12/16 05:52:43;;;;;;;18.87;14.77;;;;;;;9.36;70.65;96704.47;5046972;28;20449;-72
2020/12/16 05:55:09;;;;;;;18.33;14.13;;;;;;;9.38;71.11;96702.53;5064028;28;20441;-72
2020/12/16 05:57:35;;;;;;;17.67;14.13;;;;;;;9.42;71.23;96697.81;5045627;28;20434;-71
2020/12/16 06:00:11;;;;;;;17.33;13.30;;;;;;;9.49;71.08;96698.00;5030614;28;20266;-72
2020/12/16 06:02:38;;;;;;;17.87;13.63;;;;;;;9.56;71.23;96704.25;5046619;28;20206;-72
2020/12/16 06:05:14;;;;;;;17.90;14.20;;;;;;;9.62;71.36;96702.78;5054719;28;20460;-71
2020/12/16 06:07:41;;;;;;;18.57;14.10;;;;;;;9.64;70.72;96709.50;5046093;28;20454;-71
2020/12/16 06:10:08;;;;;;;14.93;12.43;;;;;;;9.60;70.94;96721.25;5050224;28;20424;-71
2020/12/16 06:12:37;;;;;;;17.93;13.00;;;;;;;9.62;70.80;96724.53;5057104;28;20452;-72
2020/12/16 06:15:14;;;;;;;20.60;13.53;;;;;;;9.59;71.13;96724.84;5071576;28;20479;-71
2020/12/16 06:17:44;;;;;;;17.03;12.93;;;;;;;9.70;70.57;96718.50;5062407;28;20813;-72
2020/12/16 06:20:15;;;;;;;16.00;13.13;;;;;;;9.67;70.60;96717.03;5053233;28;20457;-71
2020/12/16 06:22:43;;;;;;;14.80;12.40;;;;;;;9.75;70.39;96716.25;5048394;28;20440;-71
2020/12/16 06:25:13;;;;;;;18.60;12.87;;;;;;;9.79;70.30;96729.84;5047939;28;20447;-72
2020/12/16 06:27:50;;;;;;;16.47;12.63;;;;;;;9.85;70.24;96737.03;5037353;28;20458;-72
2020/12/16 06:30:16;;;;;;;17.23;13.13;;;;;;;9.87;70.07;96731.66;5049660;28;20424;-71
2020/12/16 06:32:45;;;;;;;15.30;12.70;;;;;;;9.87;70.05;96732.47;5048193;28;20965;-72
2020/12/16 06:35:16;;;;;;;19.80;13.10;;;;;;;9.90;70.03;96732.16;5047543;28;20225;-72
2020/12/16 06:37:42;;;;;;;15.20;11.83;;;;;;;9.91;69.90;96728.56;5048566;28;20429;-72
2020/12/16 06:40:08;;;;;;;18.63;12.23;;;;;;;9.93;69.87;96726.59;5051176;28;20468;-73
2020/12/16 06:42:33;;;;;;;15.43;11.87;;;;;;;9.86;70.04;96736.06;5049381;28;20175;-72
2020/12/16 06:45:15;;;;;;;20.90;13.30;;;;;;;9.91;69.44;96744.25;5052224;28;20215;-73
2020/12/16 06:47:42;;;;;;;17.47;12.13;;;;;;;9.91;69.51;96739.03;5053077;28;20224;-74
2020/12/16 06:50:18;;;;;;;18.37;13.87;;;;;;;9.92;69.88;96732.81;5072471;28;20413;-72
2020/12/16 06:52:43;;;;;;;14.60;11.87;;;;;;;9.90;69.72;96742.63;5043423;28;20437;-72
2020/12/16 06:55:09;;;;;;;16.10;11.37;;;;;;;9.94;69.47;96737.88;5051542;28;20448;-73
2020/12/16 06:57:48;;;;;;;12.93;10.83;;;;;;;9.93;69.46;96741.47;5058974;28;20194;-73
2020/12/16 07:00:23;;;;;;;16.63;12.17;;;;;;;9.96;69.17;96736.72;5050025;28;20276;-73
2020/12/16 07:02:52;;;;;;;19.40;11.67;;;;;;;10.00;69.45;96739.88;5051178;28;20442;-72
2020/12/16 07:05:36;;;;;;;17.83;12.33;;;;;;;9.97;69.28;96742.81;5037090;28;20810;-73
2020/12/16 07:08:03;;;;;;;13.77;10.70;;;;;;;9.78;69.44;96734.22;5058116;28;20427;-73
2020/12/16 07:10:35;;;;;;;11.67;10.00;;;;;;;9.83;68.64;96741.59;5058780;28;20425;-73
2020/12/16 07:13:23;;;;;;;16.03;10.27;;;;;;;9.64;69.23;96737.47;5052494;28;20954;-73
2020/12/16 07:15:54;;;;;;;12.43;10.40;;;;;;;9.70;69.04;96743.88;5043509;28;20555;-71
2020/12/16 07:18:32;;;;;;;11.80;9.80;;;;;;;9.65;68.83;96757.41;5015759;28;20438;-71
2020/12/16 07:21:19;;;;;;;10.47;9.00;;;;;;;9.70;68.89;96746.50;5058694;28;20465;-72
2020/12/16 07:23:52;;;;;;;12.10;10.00;;;;;;;9.72;69.21;96747.97;5070603;28;20445;-72
2020/12/16 07:26:24;;;;;;;12.10;9.50;;;;;;;9.71;68.15;96762.03;5069141;28;20590;-72
2020/12/16 07:28:50;;;;;;;15.37;10.27;;;;;;;9.63;68.79;96768.03;5054101;28;20425;-72
2020/12/16 07:31:16;;;;;;;13.57;10.80;;;;;;;9.69;68.77;96766.59;5070079;28;20413;-73
2020/12/16 07:33:43;;;;;;;14.17;10.20;;;;;;;9.71;68.46;96769.03;5059749;28;20710;-73
2020/12/16 07:36:09;;;;;;;12.03;9.83;;;;;;;9.71;68.86;96774.28;5071494;28;20511;-72
2020/12/16 07:38:35;;;;;;;21.03;9.43;;;;;;;9.73;68.92;96769.69;5059695;28;20496;-73
2020/12/16 07:41:00;;;;;;;17.57;9.97;;;;;;;9.42;69.20;96784.13;5068045;28;20460;-73
2020/12/16 07:43:27;;;;;;;11.83;9.63;;;;;;;9.45;69.68;96781.19;5072572;28;20425;-73
2020/12/16 07:46:06;;;;;;;12.43;10.10;;;;;;;9.49;69.62;96781.69;5071474;28;20646;-73
2020/12/16 07:48:33;;;;;;;13.77;9.77;;;;;;;9.45;69.18;96790.84;5036578;28;20910;-74
2020/12/16 07:51:06;;;;;;;12.20;9.77;;;;;;;9.53;69.23;96783.03;5051056;28;20426;-73
2020/12/16 07:53:33;;;;;;;12.27;9.53;;;;;;;9.52;69.16;96787.44;5044950;28;20488;-74
2020/12/16 07:56:01;;;;;;;10.80;8.47;;;;;;;9.31;69.62;96792.22;5050181;28;20875;-74
2020/12/16 07:58:29;;;;;;;10.40;8.63;;;;;;;9.30;69.42;96787.97;5046871;28;20512;-74
2020/12/16 08:01:09;;;;;;;12.00;9.50;;;;;;;9.23;69.18;96793.00;5035115;28;20472;-72
2020/12/16 08:03:35;;;;;;;13.07;9.03;;;;;;;9.17;69.81;96788.41;5052186;28;21062;-73
2020/12/16 08:06:02;;;;;;;9.03;8.03;;;;;;;9.31;69.69;96785.22;5065610;28;20428;-73
2020/12/16 08:08:27;;;;;;;9.40;7.93;;;;;;;9.20;69.40;96798.53;5030991;28;20461;-72
2020/12/16 08:10:54;;;;;;;10.67;8.57;;;;;;;9.28;69.53;96792.53;5048334;28;20943;-73
2020/12/16 08:13:27;;;;;;;10.30;8.53;;;;;;;9.45;68.92;96799.50;5053064;28;20501;-74
2020/12/16 08:16:05;;;;;;;8.83;7.43;;;;;;;9.58;68.89;96787.78;5047564;28;20473;-73
2020/12/16 08:18:30;;;;;;;8.23;7.10;;;;;;;9.49;68.30;96792.16;5040799;28;20430;-74
2020/12/16 08:20:56;;;;;;;8.67;7.30;;;;;;;9.45;68.17;96790.84;5029647;28;20457;-74
2020/12/16 08:23:22;;;;;;;9.17;7.50;;;;;;;9.63;68.03;96793.41;5046914;28;20182;-73
2020/12/16 08:25:47;;;;;;;9.20;7.60;;;;;;;9.51;68.00;96793.63;5047955;28;20622;-73
2020/12/16 08:28:13;;;;;;;9.03;7.63;;;;;;;9.49;67.80;96792.16;5051844;28;20224;-73
2020/12/16 08:30:40;;;;;;;9.83;7.83;;;;;;;9.47;68.13;96787.09;5054472;28;20212;-74
2020/12/16 08:33:13;;;;;;;9.20;7.43;;;;;;;9.70;67.93;96791.78;5053074;28;20186;-73
2020/12/16 08:35:52;;;;;;;8.70;7.10;;;;;;;9.81;67.22;96795.94;5032043;28;20529;-73
2020/12/16 08:38:25;;;;;;;7.53;6.63;;;;;;;10.00;67.75;96794.84;5049708;28;20449;-73
2020/12/16 08:40:51;;;;;;;9.30;7.20;;;;;;;9.83;67.21;96805.25;5045267;28;20805;-73
2020/12/16 08:43:34;;;;;;;9.20;7.70;;;;;;;9.97;67.44;96801.19;5050883;28;20513;-73
2020/12/16 08:46:10;;;;;;;9.00;7.10;;;;;;;10.08;67.23;96794.88;5051666;28;20840;-73
2020/12/16 08:48:53;;;;;;;8.43;7.50;;;;;;;9.86;67.35;96801.50;5051431;28;20477;-74
2020/12/16 08:51:20;;;;;;;7.53;6.83;;;;;;;10.01;67.45;96799.13;5053007;28;20513;-74
2020/12/16 08:53:52;;;;;;;9.00;7.17;;;;;;;10.19;66.95;96808.63;5049374;28;20465;-71
2020/12/16 08:56:23;;;;;;;6.77;6.07;;;;;;;10.18;66.96;96799.97;5052886;28;20848;-75
2020/12/16 08:58:59;;;;;;;8.07;6.23;;;;;;;10.09;66.90;96804.38;5066972;28;20546;-73
2020/12/16 09:01:25;;;;;;;8.20;6.33;;;;;;;10.13;67.05;96807.47;5053046;28;20429;-74
2020/12/16 09:03:52;;;;;;;7.13;5.60;;;;;;;10.18;67.30;96807.00;5048091;28;20461;-75
2020/12/16 09:06:17;;;;;;;6.67;6.07;;;;;;;10.30;67.05;96803.09;5049592;28;20183;-74
2020/12/16 09:08:43;;;;;;;8.23;6.60;;;;;;;10.28;66.48;96805.06;5074273;28;20791;-74
2020/12/16 09:11:09;;;;;;;7.17;5.70;;;;;;;10.23;66.37;96813.41;5074606;28;20189;-74
2020/12/16 09:13:34;;;;;;;5.83;5.23;;;;;;;9.93;67.36;96815.59;5074398;28;20244;-73
2020/12/16 09:16:00;;;;;;;6.10;5.50;;;;;;;9.99;67.31;96809.72;5051867;28;20179;-74
2020/12/16 09:18:28;;;;;;;7.53;5.47;;;;;;;10.11;66.86;96812.03;5068327;28;20273;-74
2020/12/16 09:20:55;;;;;;;7.50;6.13;;;;;;;10.29;66.47;96807.53;5074444;28;20355;-76
2020/12/16 09:23:28;;;;;;;10.40;6.67;;;;;;;10.36;66.31;96820.81;5055935;28;20429;-74
2020/12/16 09:25:57;;;;;;;6.63;5.57;;;;;;;10.53;66.40;96818.22;5072356;28;20433;-75
2020/12/16 09:28:37;;;;;;;6.70;5.67;;;;;;;10.49;66.42;96815.13;5074407;28;20421;-75
2020/12/16 09:31:16;;;;;;;8.47;6.20;;;;;;;10.58;66.63;96808.94;5072418;28;20412;-73
2020/12/16 09:33:53;;;;;;;6.93;6.17;;;;;;;10.58;66.34;96819.41;5047841;28;20912;-75
2020/12/16 09:36:23;;;;;;;6.83;6.07;;;;;;;10.76;65.80;96818.44;5060706;28;20432;-73
2020/12/16 09:39:00;;;;;;;6.63;6.00;;;;;;;10.84;65.76;96821.03;5070383;28;20462;-74
2020/12/16 09:41:26;;;;;;;6.00;5.50;;;;;;;10.67;66.27;96817.59;5048821;28;20425;-73
2020/12/16 09:43:53;;;;;;;6.50;5.63;;;;;;;10.73;66.94;96810.88;5050517;28;20937;-75
2020/12/16 09:46:20;;;;;;;7.60;5.80;;;;;;;11.01;66.00;96811.41;5051112;28;20486;-74
2020/12/16 09:48:47;;;;;;;6.57;4.60;;;;;;;10.84;66.21;96810.56;5049743;28;20422;-75
2020/12/16 09:51:19;;;;;;;6.23;5.33;;;;;;;10.85;66.39;96814.81;5020166;28;20525;-76
2020/12/16 09:53:48;;;;;;;7.13;5.37;;;;;;;10.96;66.26;96811.06;5052995;28;20446;-74
2020/12/16 09:56:27;;;;;;;6.83;5.57;;;;;;;11.08;66.55;96803.69;5055743;28;20618;-74
2020/12/16 09:58:54;;;;;;;5.97;5.30;;;;;;;11.24;65.55;96807.25;5055917;28;20431;-73
2020/12/16 10:01:20;;;;;;;6.23;5.53;;;;;;;11.32;65.59;96804.66;5072343;28;20528;-75
2020/12/16 10:03:49;;;;;;;6.30;4.80;;;;;;;11.32;65.39;96799.41;5042738;28;20478;-74
2020/12/16 10:06:16;;;;;;;5.77;5.00;;;;;;;11.36;65.53;96800.69;5072194;28;20427;-75
2020/12/16 10:08:43;;;;;;;5.53;4.90;;;;;;;11.36;65.82;96804.16;5073266;28;20939;-74
2020/12/16 10:11:12;;;;;;;7.23;5.63;;;;;;;11.60;65.78;96802.44;5070454;28;20414;-74
2020/12/16 10:13:38;;;;;;;7.83;5.83;;;;;;;11.62;65.34;96800.47;5068896;28;20444;-73
2020/12/16 10:16:04;;;;;;;11.03;7.33;;;;;;;11.66;64.55;96800.94;5071289;28;20493;-74
2020/12/16 10:18:30;;;;;;;6.77;5.90;;;;;;;11.72;64.78;96805.50;5055396;28;20422;-74
2020/12/16 10:20:56;;;;;;;6.37;5.77;;;;;;;11.69;64.77;96800.63;5068663;28;20471;-76
2020/12/16 10:23:22;;;;;;;5.93;5.03;;;;;;;11.70;64.24;96790.94;5069050;28;20179;-75
2020/12/16 10:25:48;;;;;;;6.70;5.70;;;;;;;11.62;64.54;96791.78;5073086;28;20186;-75
2020/12/16 10:28:14;;;;;;;5.70;4.93;;;;;;;11.62;64.63;96804.88;5072841;28;20417;-75
2020/12/16 10:30:39;;;;;;;6.47;5.73;;;;;;;11.62;64.34;96795.22;5055504;28;20500;-74
2020/12/16 10:33:05;;;;;;;5.90;5.23;;;;;;;11.86;64.06;96790.88;5045899;28;20429;-75
2020/12/16 10:35:31;;;;;;;6.00;5.10;;;;;;;12.04;63.51;96795.06;5055132;28;20199;-74
2020/12/16 10:37:56;;;;;;;6.27;5.57;;;;;;;12.05;63.29;96796.72;5070719;28;20187;-73
2020/12/16 10:40:22;;;;;;;7.60;5.80;;;;;;;12.24;62.77;96793.69;5048648;28;20214;-74
2020/12/16 10:42:48;;;;;;;5.93;5.33;;;;;;;12.29;62.44;96795.78;5056362;28;20188;-74
2020/12/16 10:45:14;;;;;;;5.80;5.00;;;;;;;12.42;62.30;96793.41;5060158;28;20214;-74
2020/12/16 10:47:41;;;;;;;7.10;5.87;;;;;;;12.50;62.50;96784.66;5054428;28;20190;-74
2020/12/16 10:50:07;;;;;;;8.10;5.90;;;;;;;12.60;61.79;96785.22;5057249;28;20421;-75
2020/12/16 10:52:33;;;;;;;7.23;5.93;;;;;;;12.45;62.02;96779.09;5071298;28;20436;-75
2020/12/16 10:54:59;;;;;;;7.07;5.40;;;;;;;12.71;61.55;96778.75;5072940;28;20957;-75
2020/12/16 10:57:25;;;;;;;7.30;5.93;;;;;;;12.81;61.60;96793.47;5027284;28;20179;-77
2020/12/16 10:59:53;;;;;;;6.97;5.53;;;;;;;12.74;62.19;96783.63;5057602;28;20676;-74
2020/12/16 11:02:19;;;;;;;6.47;5.80;;;;;;;12.86;61.92;96780.59;5055638;28;21013;-74
2020/12/16 11:04:45;;;;;;;6.10;5.20;;;;;;;13.10;60.90;96781.41;5074143;28;20454;-74
2020/12/16 11:07:10;;;;;;;6.93;5.23;;;;;;;12.88;61.79;96779.44;5069230;28;20525;-74
2020/12/16 11:09:36;;;;;;;9.07;5.80;;;;;;;12.89;61.64;96770.56;5072777;28;20216;-73
2020/12/16 11:12:02;;;;;;;6.90;5.43;;;;;;;12.90;61.40;96760.84;5054860;28;20190;-73
2020/12/16 11:14:28;;;;;;;6.53;5.03;;;;;;;13.01;61.02;96772.75;5063634;28;20934;-74
2020/12/16 11:16:54;;;;;;;6.70;5.60;;;;;;;12.83;62.10;96770.44;5064611;28;20558;-75
2020/12/16 11:19:20;;;;;;;5.90;4.93;;;;;;;13.12;61.13;96767.06;5070787;28;20222;-75
2020/12/16 11:21:48;;;;;;;6.77;5.37;;;;;;;13.17;61.26;96761.25;5054028;28;20542;-75
2020/12/16 11:24:16;;;;;;;8.90;7.07;;;;;;;13.27;60.79;96764.44;5037355;28;20484;-74
2020/12/16 11:26:46;;;;;;;8.67;5.70;;;;;;;12.97;61.43;96767.03;5071019;28;20438;-75